Terminal Aerodrome Forecast
Issued by NWS Cleveland, OH

Home | Current Version | Previous Version | Text Only | Print | Product List | Glossary On
Versions: 1 2 3 4 5 6 7 8 9 10 11 12 13 14 15 16 17 18 19 20
856
FTUS41 KCLE 251424 AAA
TAFTOL
TAF AMD
KTOL 251424Z 2514/2612 25020G32KT P6SM BKN025
     FM252000 25015G25KT P6SM SCT025
     FM260000 25010KT P6SM SKC=

USA.gov is the U.S. government's official web portal to all federal, state and local government web resources and services.